createdAt,value
2022-12-14T00:01:54.901Z,97944.91
2022-12-14T00:04:22.877Z,97938.75
2022-12-14T00:06:52.623Z,97930.28
2022-12-14T00:09:20.609Z,97934.91
2022-12-14T00:11:50.246Z,97937.22
2022-12-14T00:14:18.304Z,97939.84
2022-12-14T00:16:46.289Z,97939.06
2022-12-14T00:19:15.581Z,97932.56
2022-12-14T00:21:43.567Z,97930.63
2022-12-14T00:24:13.035Z,97935.31
2022-12-14T00:26:41.021Z,97933.75
2022-12-14T00:29:09.033Z,97927.63
2022-12-14T00:31:37.167Z,97922.25
2022-12-14T00:34:05.450Z,97929.19
2022-12-14T00:36:33.478Z,97918.06
2022-12-14T00:39:01.465Z,97925.03
2022-12-14T00:41:30.809Z,97928.50
2022-12-14T00:43:59.032Z,97922.75
2022-12-14T00:46:27.095Z,97925.03
2022-12-14T00:48:55.204Z,97930.81
2022-12-14T00:51:23.219Z,97931.97
2022-12-14T00:53:51.311Z,97933.91
2022-12-14T00:56:19.312Z,97930.81
2022-12-14T00:58:53.002Z,97925.47
2022-12-14T01:01:22.378Z,97920.84
2022-12-14T01:03:50.818Z,97932.38
2022-12-14T01:06:20.751Z,97923.16
2022-12-14T01:08:49.419Z,97913.94
2022-12-14T01:11:17.427Z,97912.41
2022-12-14T01:13:49.640Z,97920.88
2022-12-14T01:16:19.545Z,97918.56
2022-12-14T01:18:47.838Z,97918.97
2022-12-14T01:21:18.691Z,97913.19
2022-12-14T01:23:50.074Z,97916.66
2022-12-14T01:26:19.596Z,97912.03
2022-12-14T01:28:49.044Z,97904.72
2022-12-14T01:31:20.153Z,97907.44
2022-12-14T01:33:48.964Z,97903.97
2022-12-14T01:36:18.818Z,97902.03
2022-12-14T01:38:47.863Z,97903.56
2022-12-14T01:41:24.626Z,97896.25
2022-12-14T01:43:54.620Z,97892.81
2022-12-14T01:46:31.076Z,97899.34
2022-12-14T01:49:04.795Z,97897.03
2022-12-14T01:51:33.997Z,97890.88
2022-12-14T01:54:05.086Z,97896.25
2022-12-14T01:56:37.111Z,97889.72
2022-12-14T01:59:09.053Z,97890.13
2022-12-14T02:01:38.685Z,97886.28
2022-12-14T02:04:07.494Z,97884.72
2022-12-14T02:06:39.127Z,97878.22
2022-12-14T02:09:10.637Z,97877.81
2022-12-14T02:11:48.304Z,97877.81
2022-12-14T02:14:16.856Z,97875.13
2022-12-14T02:16:46.313Z,97873.56
2022-12-14T02:19:14.295Z,97878.97
2022-12-14T02:22:02.742Z,97876.28
2022-12-14T02:24:45.880Z,97880.84
2022-12-14T02:27:40.243Z,97882.00
2022-12-14T02:30:13.908Z,97883.53
2022-12-14T02:33:01.991Z,97880.41
2022-12-14T02:35:39.865Z,97877.75
2022-12-14T02:38:17.890Z,97876.97
2022-12-14T02:40:55.729Z,97875.03
2022-12-14T02:43:32.628Z,97871.56
2022-12-14T02:46:11.040Z,97877.34
2022-12-14T02:48:43.101Z,97871.53
2022-12-14T02:51:23.631Z,97869.53
2022-12-14T02:53:57.922Z,97868.00
2022-12-14T02:56:30.908Z,97865.31
2022-12-14T02:58:59.477Z,97863.81
2022-12-14T03:01:30.542Z,97858.41
2022-12-14T03:03:58.729Z,97851.91
2022-12-14T03:06:27.195Z,97850.75
2022-12-14T03:08:59.470Z,97853.38
2022-12-14T03:11:32.748Z,97846.06
2022-12-14T03:14:05.843Z,97853.72
2022-12-14T03:16:42.680Z,97851.00
2022-12-14T03:19:17.035Z,97855.22
2022-12-14T03:21:48.829Z,97853.72
2022-12-14T03:24:23.257Z,97849.91
2022-12-14T03:26:54.817Z,97846.09
2022-12-14T03:29:27.385Z,97837.66
2022-12-14T03:31:59.728Z,97851.09
2022-12-14T03:34:34.718Z,97848.41
2022-12-14T03:37:10.893Z,97851.09
2022-12-14T03:39:42.168Z,97862.16
2022-12-14T03:42:16.853Z,97855.31
2022-12-14T03:44:50.185Z,97852.22
2022-12-14T03:47:40.059Z,97852.59
2022-12-14T03:50:14.560Z,97853.78
2022-12-14T03:52:50.661Z,97852.16
2022-12-14T03:55:27.500Z,97849.47
2022-12-14T03:58:15.708Z,97851.81
2022-12-14T04:00:51.276Z,97844.88
2022-12-14T04:03:28.633Z,97842.19
2022-12-14T04:06:01.875Z,97832.97
2022-12-14T04:08:35.761Z,97824.50
2022-12-14T04:11:24.699Z,97828.31
2022-12-14T04:14:18.100Z,97841.34
2022-12-14T04:17:08.764Z,97834.03
2022-12-14T04:19:45.474Z,97830.56
2022-12-14T04:22:20.717Z,97837.09
2022-12-14T04:25:12.965Z,97834.41
2022-12-14T04:27:45.655Z,97829.81
2022-12-14T04:30:14.115Z,97833.66
2022-12-14T04:32:45.550Z,97827.53
2022-12-14T04:35:20.885Z,97819.91
2022-12-14T04:37:52.648Z,97819.53
2022-12-14T04:40:24.800Z,97818.00
2022-12-14T04:42:57.131Z,97818.00
2022-12-14T04:45:31.765Z,97815.69
2022-12-14T04:48:08.990Z,97819.06
2022-12-14T04:50:44.003Z,97811.47
2022-12-14T04:53:16.336Z,97812.63
2022-12-14T04:55:50.095Z,97805.75
2022-12-14T04:58:23.491Z,97800.75
2022-12-14T05:01:09.804Z,97805.31
2022-12-14T05:03:48.145Z,97800.38
2022-12-14T05:06:25.888Z,97801.16
2022-12-14T05:09:11.104Z,97797.34
2022-12-14T05:11:59.244Z,97796.97
2022-12-14T05:14:35.320Z,97795.09
2022-12-14T05:17:08.787Z,97782.44
2022-12-14T05:19:38.398Z,97784.00
2022-12-14T05:22:09.228Z,97778.63
2022-12-14T05:24:37.541Z,97777.84
2022-12-14T05:27:05.784Z,97774.31
2022-12-14T05:29:34.069Z,97775.84
2022-12-14T05:32:02.893Z,97763.91
2022-12-14T05:34:30.923Z,97768.56
2022-12-14T05:36:59.308Z,97764.28
2022-12-14T05:39:28.707Z,97761.97
2022-12-14T05:41:56.708Z,97760.88
2022-12-14T05:44:24.656Z,97770.91
2022-12-14T05:46:52.718Z,97751.34
2022-12-14T05:49:20.688Z,97766.75
2022-12-14T05:51:49.696Z,97759.44
2022-12-14T05:54:17.881Z,97766.00
2022-12-14T05:56:47.330Z,97760.22
2022-12-14T05:59:16.497Z,97764.06
2022-12-14T06:01:45.511Z,97765.59
2022-12-14T06:04:18.543Z,97767.50
2022-12-14T06:06:46.849Z,97773.63
2022-12-14T06:09:16.898Z,97772.09
2022-12-14T06:11:46.292Z,97770.53
2022-12-14T06:14:15.909Z,97777.44
2022-12-14T06:16:45.574Z,97780.09
2022-12-14T06:19:15.205Z,97775.84
2022-12-14T06:21:44.941Z,97776.25
2022-12-14T06:24:13.887Z,97769.31
2022-12-14T06:26:42.516Z,97765.03
2022-12-14T06:29:17.940Z,97763.88
2022-12-14T06:31:49.016Z,97760.41
2022-12-14T06:34:18.365Z,97758.06
2022-12-14T06:36:48.011Z,97760.34
2022-12-14T06:39:18.088Z,97751.97
2022-12-14T06:41:50.811Z,97742.28
2022-12-14T06:44:20.258Z,97746.22
2022-12-14T06:46:48.295Z,97740.84
2022-12-14T06:49:17.207Z,97745.13
2022-12-14T06:51:45.622Z,97760.72
2022-12-14T06:54:14.095Z,97766.94
2022-12-14T06:56:43.344Z,97764.25
2022-12-14T06:59:11.801Z,97760.00
2022-12-14T07:01:42.422Z,97759.72
2022-12-14T07:04:10.896Z,97770.03
2022-12-14T07:06:40.934Z,97774.63
2022-12-14T07:09:13.174Z,97768.88
2022-12-14T07:11:41.900Z,97762.31
2022-12-14T07:14:15.855Z,97756.47
2022-12-14T07:16:48.654Z,97749.63
2022-12-14T07:19:17.502Z,97749.72
2022-12-14T07:21:45.550Z,97742.00
2022-12-14T07:24:13.769Z,97736.63
2022-12-14T07:26:41.750Z,97745.09
2022-12-14T07:29:12.076Z,97735.19
2022-12-14T07:31:40.399Z,97735.88
2022-12-14T07:34:14.009Z,97741.28
2022-12-14T07:36:43.233Z,97728.34
2022-12-14T07:39:13.628Z,97729.13
2022-12-14T07:41:41.707Z,97733.38
2022-12-14T07:44:10.120Z,97740.66
2022-12-14T07:46:38.464Z,97728.38
2022-12-14T07:49:07.355Z,97723.81
2022-12-14T07:51:38.684Z,97720.75
2022-12-14T07:54:07.767Z,97727.25
2022-12-14T07:56:37.606Z,97725.72
2022-12-14T07:59:08.504Z,97722.66
2022-12-14T08:01:38.040Z,97713.06
2022-12-14T08:04:07.949Z,97720.75
2022-12-14T08:06:38.203Z,97719.59
2022-12-14T08:09:06.965Z,97710.38
2022-12-14T08:11:35.346Z,97711.13
2022-12-14T08:14:05.765Z,97703.47
2022-12-14T08:16:34.242Z,97714.97
2022-12-14T08:19:02.906Z,97716.84
2022-12-14T08:21:31.383Z,97709.88
2022-12-14T08:24:00.743Z,97720.22
2022-12-14T08:26:35.197Z,97711.81
2022-12-14T08:29:04.212Z,97706.81
2022-12-14T08:31:32.707Z,97707.19
2022-12-14T08:34:01.968Z,97708.38
2022-12-14T08:36:32.796Z,97707.22
2022-12-14T08:39:04.683Z,97709.13
2022-12-14T08:41:32.707Z,97702.50
2022-12-14T08:44:02.860Z,97707.91
2022-12-14T08:46:33.365Z,97707.59
2022-12-14T08:49:01.878Z,97711.41
2022-12-14T08:51:30.417Z,97699.84
2022-12-14T08:53:58.958Z,97706.06
2022-12-14T08:56:29.792Z,97700.91
2022-12-14T08:58:58.552Z,97701.34
2022-12-14T09:01:33.562Z,97693.66
2022-12-14T09:04:05.103Z,97695.66
2022-12-14T09:06:37.710Z,97679.06
2022-12-14T09:09:10.410Z,97668.16
2022-12-14T09:11:45.484Z,97665.78
2022-12-14T09:14:13.636Z,97668.56
2022-12-14T09:16:41.694Z,97663.22
2022-12-14T09:19:09.836Z,97668.56
2022-12-14T09:21:38.595Z,97660.72
2022-12-14T09:24:07.392Z,97656.97
2022-12-14T09:26:35.460Z,97661.00
2022-12-14T09:29:05.446Z,97666.03
2022-12-14T09:31:33.565Z,97661.06
2022-12-14T09:34:01.565Z,97652.72
2022-12-14T09:36:29.898Z,97656.16
2022-12-14T09:38:59.483Z,97657.19
2022-12-14T09:41:50.670Z,97652.53
2022-12-14T09:44:32.768Z,97656.22
2022-12-14T09:47:07.107Z,97644.78
2022-12-14T09:49:41.351Z,97648.25
2022-12-14T09:52:17.817Z,97654.38
2022-12-14T09:54:49.814Z,97650.63
2022-12-14T09:57:27.065Z,97635.72
2022-12-14T09:59:56.630Z,97629.63
2022-12-14T10:02:52.523Z,97623.13
2022-12-14T10:05:33.495Z,97615.47
2022-12-14T10:08:06.978Z,97623.03
2022-12-14T10:10:43.696Z,97612.09
2022-12-14T10:13:20.845Z,97621.91
2022-12-14T10:16:00.960Z,97613.22
2022-12-14T10:19:02.146Z,97607.69
2022-12-14T10:21:42.764Z,97615.25
2022-12-14T10:24:18.598Z,97617.16
2022-12-14T10:26:51.451Z,97615.16
2022-12-14T10:29:28.981Z,97622.38
2022-12-14T10:32:06.643Z,97621.91
2022-12-14T10:34:36.333Z,97614.94
2022-12-14T10:37:21.579Z,97608.97
2022-12-14T10:39:59.832Z,97601.81
2022-12-14T10:42:37.227Z,97601.81
2022-12-14T10:48:29.460Z,97590.94
2022-12-14T10:51:01.660Z,97576.47
2022-12-14T10:53:40.768Z,97577.41
2022-12-14T10:56:18.112Z,97567.50
2022-12-14T10:58:46.293Z,97572.03
2022-12-14T11:01:16.652Z,97578.25
2022-12-14T11:03:55.363Z,97582.00
2022-12-14T11:06:23.448Z,97575.25
2022-12-14T11:08:51.659Z,97571.09
2022-12-14T11:11:23.848Z,97558.63
2022-12-14T11:13:54.177Z,97550.56
2022-12-14T11:16:35.468Z,97548.00
2022-12-14T11:19:06.958Z,97540.09
2022-12-14T11:21:37.185Z,97541.06
2022-12-14T11:24:05.982Z,97534.97
2022-12-14T11:26:37.452Z,97523.66
2022-12-14T11:29:07.712Z,97527.25
2022-12-14T11:31:38.693Z,97537.53
2022-12-14T11:34:23.346Z,97530.28
2022-12-14T11:36:51.550Z,97529.19
2022-12-14T11:39:24.382Z,97527.63
2022-12-14T11:42:00.924Z,97518.31
2022-12-14T11:44:37.388Z,97521.44
2022-12-14T11:47:08.534Z,97516.47
2022-12-14T11:49:46.101Z,97518.47
2022-12-14T11:52:17.332Z,97519.66
2022-12-14T11:54:49.777Z,97515.25
2022-12-14T11:57:25.997Z,97508.63
2022-12-14T11:59:57.718Z,97507.09
2022-12-14T12:02:30.207Z,97509.81
2022-12-14T12:05:06.409Z,97507.44
2022-12-14T12:07:37.493Z,97504.38
2022-12-14T12:10:16.564Z,97506.78
2022-12-14T12:12:54.843Z,97503.66
2022-12-14T12:15:27.104Z,97493.50
2022-12-14T12:17:59.223Z,97488.66
2022-12-14T12:20:36.426Z,97491.91
2022-12-14T12:23:11.426Z,97483.09
2022-12-14T12:25:41.762Z,97477.00
2022-12-14T12:28:17.154Z,97477.78
2022-12-14T12:30:50.554Z,97460.06
2022-12-14T12:33:31.452Z,97460.69
2022-12-14T12:36:04.804Z,97463.66
2022-12-14T12:38:55.111Z,97449.88
2022-12-14T12:41:30.681Z,97438.25
2022-12-14T12:44:05.018Z,97443.72
2022-12-14T12:46:48.471Z,97436.59
2022-12-14T12:49:27.821Z,97430.75
2022-12-14T12:52:01.965Z,97422.06
2022-12-14T12:54:35.254Z,97422.16
2022-12-14T12:57:06.232Z,97415.19
2022-12-14T12:59:39.812Z,97412.06
2022-12-14T13:02:21.457Z,97409.53
2022-12-14T13:04:52.939Z,97405.22
2022-12-14T13:07:30.953Z,97406.50
2022-12-14T13:10:05.866Z,97409.94
2022-12-14T13:12:38.653Z,97405.25
2022-12-14T13:15:17.582Z,97401.59
2022-12-14T13:17:49.558Z,97384.44
2022-12-14T13:20:23.037Z,97379.25
2022-12-14T13:22:53.391Z,97376.41
2022-12-14T13:25:26.835Z,97372.41
2022-12-14T13:28:10.101Z,97360.97
2022-12-14T13:30:49.747Z,97360.28
2022-12-14T13:33:42.660Z,97350.16
2022-12-14T13:36:47.464Z,97346.69
2022-12-14T13:39:35.277Z,97334.59
2022-12-14T13:42:08.859Z,97330.41
2022-12-14T13:44:55.392Z,97331.47
2022-12-14T13:47:29.612Z,97315.47
2022-12-14T13:52:51.064Z,97297.25
2022-12-14T13:55:33.382Z,97291.50
2022-12-14T13:58:14.065Z,97286.94
2022-12-14T14:00:55.818Z,97278.25
2022-12-14T14:03:52.123Z,97285.91
2022-12-14T14:06:39.996Z,97271.63
2022-12-14T14:09:44.824Z,97265.38
2022-12-14T14:12:45.035Z,97263.13
2022-12-14T14:15:33.148Z,97244.69
2022-12-14T14:18:23.680Z,97246.06
2022-12-14T14:20:58.760Z,97249.19
2022-12-14T14:23:32.806Z,97249.03
2022-12-14T14:26:18.048Z,97231.31
2022-12-14T14:28:51.712Z,97238.25
2022-12-14T14:31:20.067Z,97235.31
2022-12-14T14:33:50.523Z,97235.47
2022-12-14T14:36:23.648Z,97225.78
2022-12-14T14:38:52.458Z,97221.81
2022-12-14T14:41:25.416Z,97220.38
2022-12-14T14:44:00.197Z,97216.97
2022-12-14T14:46:35.952Z,97213.63
2022-12-14T14:49:05.343Z,97204.97
2022-12-14T14:51:36.873Z,97197.53
2022-12-14T14:55:10.747Z,97187.00
2022-12-14T14:57:36.945Z,97189.91
2022-12-14T15:00:11.604Z,97174.41
2022-12-14T15:02:43.124Z,97159.22
2022-12-14T15:05:41.500Z,97135.41
2022-12-14T15:08:14.728Z,97143.00
2022-12-14T15:10:45.201Z,97129.88
2022-12-14T15:13:21.683Z,97136.66
2022-12-14T15:15:54.678Z,97143.09
2022-12-14T15:18:25.138Z,97144.69
2022-12-14T15:21:01.918Z,97133.81
2022-12-14T15:23:36.290Z,97128.25
2022-12-14T15:26:16.338Z,97123.78
2022-12-14T15:28:48.851Z,97118.22
2022-12-14T15:31:19.600Z,97114.09
2022-12-14T15:33:48.836Z,97112.63
2022-12-14T15:36:19.374Z,97106.38
2022-12-14T15:38:55.002Z,97100.59
2022-12-14T15:41:25.028Z,97104.69
2022-12-14T15:43:58.171Z,97088.63
2022-12-14T15:46:31.402Z,97086.28
2022-12-14T15:49:01.238Z,97084.53
2022-12-14T15:51:33.394Z,97070.59
2022-12-14T15:54:03.850Z,97084.97
2022-12-14T15:56:34.536Z,97089.97
2022-12-14T15:59:05.028Z,97076.16
2022-12-14T16:01:40.136Z,97048.31
2022-12-14T16:04:15.419Z,97065.03
2022-12-14T16:06:49.513Z,97044.44
2022-12-14T16:09:25.413Z,97037.72
2022-12-14T16:11:56.923Z,97034.56
2022-12-14T16:14:31.627Z,97039.31
2022-12-14T16:17:01.831Z,97039.81
2022-12-14T16:19:57.322Z,97044.59
2022-12-14T16:22:24.810Z,97038.53
2022-12-14T16:25:02.531Z,97033.97
2022-12-14T16:27:31.834Z,97019.50
2022-12-14T16:30:18.070Z,97025.84
2022-12-14T16:32:50.058Z,97012.31
2022-12-14T16:35:23.664Z,97019.03
2022-12-14T16:37:53.998Z,97016.81
2022-12-14T16:40:31.859Z,97015.94
2022-12-14T16:43:00.571Z,96997.41
2022-12-14T16:46:19.335Z,97009.09
2022-12-14T16:49:23.233Z,97008.91
2022-12-14T16:52:09.611Z,97001.03
2022-12-14T16:54:39.271Z,97006.06
2022-12-14T16:57:18.252Z,97000.34
2022-12-14T16:59:48.092Z,97002.75
2022-12-14T17:02:31.758Z,97005.38
2022-12-14T17:05:03.659Z,97013.16
2022-12-14T17:07:37.088Z,97006.13
2022-12-14T17:10:08.534Z,97001.03
2022-12-14T17:12:37.199Z,97004.38
2022-12-14T17:15:05.636Z,97003.63
2022-12-14T17:17:36.798Z,97013.91
2022-12-14T17:20:13.570Z,96999.50
2022-12-14T17:22:44.706Z,97010.78
2022-12-14T17:25:19.353Z,97007.97
2022-12-14T17:27:48.030Z,96997.56
2022-12-14T17:30:19.405Z,97005.47
2022-12-14T17:32:48.709Z,97000.78
2022-12-14T17:35:22.964Z,96997.13
2022-12-14T17:37:52.091Z,96999.69
2022-12-14T17:40:20.221Z,97002.84
2022-12-14T17:42:53.718Z,97000.81
2022-12-14T17:45:24.491Z,96999.09
2022-12-14T17:47:53.033Z,97003.50
2022-12-14T17:50:23.331Z,97000.53
2022-12-14T17:52:51.685Z,96992.75
2022-12-14T17:55:21.993Z,96996.28
2022-12-14T17:57:51.409Z,96986.66
2022-12-14T18:00:39.684Z,96989.25
2022-12-14T18:03:08.301Z,96980.91
2022-12-14T18:05:39.951Z,96989.25
2022-12-14T18:08:10.938Z,96979.09
2022-12-14T18:10:41.609Z,96981.13
2022-12-14T18:13:12.018Z,96977.50
2022-12-14T18:15:43.089Z,96973.28
2022-12-14T18:18:11.128Z,96968.63
2022-12-14T18:20:42.012Z,96961.69
2022-12-14T18:23:13.399Z,96964.69
2022-12-14T18:25:44.911Z,96963.47
2022-12-14T18:28:17.395Z,96961.44
2022-12-14T18:30:49.824Z,96959.09
2022-12-14T18:33:20.443Z,96962.31
2022-12-14T18:35:53.868Z,96951.47
2022-12-14T18:38:27.165Z,96951.84
2022-12-14T18:40:58.643Z,96946.22
2022-12-14T18:43:32.360Z,96931.09
2022-12-14T18:46:14.127Z,96933.34
2022-12-14T18:48:59.649Z,96927.13
2022-12-14T18:51:47.970Z,96918.81
2022-12-14T18:54:19.924Z,96911.66
2022-12-14T18:56:49.313Z,96916.50
2022-12-14T18:59:18.334Z,96914.00
2022-12-14T19:01:46.717Z,96911.66
2022-12-14T19:04:15.000Z,96907.25
2022-12-14T19:06:46.188Z,96900.78
2022-12-14T19:09:15.426Z,96896.91
2022-12-14T19:11:43.683Z,96892.34
2022-12-14T19:14:11.802Z,96887.91
2022-12-14T19:16:40.028Z,96877.66
2022-12-14T19:19:08.237Z,96882.78
2022-12-14T19:21:36.632Z,96877.94
2022-12-14T19:24:08.605Z,96871.00
2022-12-14T19:26:39.162Z,96866.03
2022-12-14T19:29:07.450Z,96870.03
2022-12-14T19:31:35.650Z,96871.00
2022-12-14T19:34:03.845Z,96863.50
2022-12-14T19:36:32.156Z,96878.78
2022-12-14T19:39:00.282Z,96865.84
2022-12-14T19:41:29.679Z,96863.19
2022-12-14T19:43:58.037Z,96855.56
2022-12-14T19:46:26.359Z,96854.72
2022-12-14T19:48:54.611Z,96844.91
2022-12-14T19:51:23.029Z,96845.81
2022-12-14T19:53:52.919Z,96843.22
2022-12-14T19:56:21.453Z,96851.66
2022-12-14T19:58:51.104Z,96844.19
2022-12-14T20:01:19.245Z,96837.59
2022-12-14T20:03:49.213Z,96835.19
2022-12-14T20:06:17.319Z,96830.13
2022-12-14T20:08:46.013Z,96829.34
2022-12-14T20:11:17.791Z,96820.88
2022-12-14T20:13:45.904Z,96831.41
2022-12-14T20:16:17.492Z,96830.06
2022-12-14T20:18:46.097Z,96830.34
2022-12-14T20:21:21.627Z,96841.88
2022-12-14T20:23:50.470Z,96838.03
2022-12-14T20:26:21.348Z,96839.06
2022-12-14T20:28:50.760Z,96837.94
2022-12-14T20:31:20.789Z,96846.81
2022-12-14T20:33:49.490Z,96844.41
2022-12-14T20:36:19.091Z,96838.22
2022-12-14T20:38:49.201Z,96841.91
2022-12-14T20:41:17.744Z,96837.25
2022-12-14T20:43:46.271Z,96836.41
2022-12-14T20:46:27.983Z,96830.22
2022-12-14T20:48:57.570Z,96829.25
2022-12-14T20:51:25.759Z,96828.66
2022-12-14T20:53:53.822Z,96828.91
2022-12-14T20:56:21.987Z,96833.81
2022-12-14T20:58:49.981Z,96837.28
2022-12-14T21:01:19.099Z,96830.53
2022-12-14T21:03:49.684Z,96836.13
2022-12-14T21:06:20.741Z,96833.59
2022-12-14T21:09:10.077Z,96831.00
2022-12-14T21:12:05.860Z,96834.31
2022-12-14T21:14:35.797Z,96833.69
2022-12-14T21:17:04.675Z,96837.47
2022-12-14T21:19:35.991Z,96841.56
2022-12-14T21:22:04.967Z,96838.88
2022-12-14T21:27:23.018Z,96847.16
2022-12-14T21:29:52.449Z,96848.09
2022-12-14T21:32:22.110Z,96841.16
2022-12-14T21:34:51.819Z,96841.63
2022-12-14T21:37:20.468Z,96840.44
2022-12-14T21:39:54.342Z,96838.66
2022-12-14T21:42:22.868Z,96844.50
2022-12-14T21:44:52.543Z,96844.63
2022-12-14T21:47:22.327Z,96843.00
2022-12-14T21:49:51.739Z,96845.56
2022-12-14T21:52:22.141Z,96844.53
2022-12-14T21:54:50.278Z,96845.44
2022-12-14T21:57:38.348Z,96846.22
2022-12-14T22:00:08.830Z,96849.38
2022-12-14T22:02:42.952Z,96848.88
2022-12-14T22:05:13.229Z,96847.47
2022-12-14T22:07:41.306Z,96853.41
2022-12-14T22:10:09.446Z,96858.72
2022-12-14T22:12:37.534Z,96855.28
2022-12-14T22:15:05.936Z,96853.19
2022-12-14T22:17:34.780Z,96855.44
2022-12-14T22:20:02.861Z,96842.94
2022-12-14T22:22:32.299Z,96845.81
2022-12-14T22:25:00.839Z,96842.59
2022-12-14T22:27:29.127Z,96840.97
2022-12-14T22:29:57.154Z,96842.34
2022-12-14T22:32:25.374Z,96842.56
2022-12-14T22:34:53.340Z,96851.22
2022-12-14T22:37:21.952Z,96852.44
2022-12-14T22:39:51.277Z,96844.94
2022-12-14T22:42:19.380Z,96836.63
2022-12-14T22:44:49.029Z,96836.06
2022-12-14T22:47:17.202Z,96837.72
2022-12-14T22:49:45.248Z,96831.19
2022-12-14T22:52:13.284Z,96835.81
2022-12-14T22:54:41.798Z,96824.88
2022-12-14T22:57:15.186Z,96830.72
2022-12-14T22:59:47.848Z,96824.38
2022-12-14T23:02:16.406Z,96828.88
2022-12-14T23:04:44.577Z,96833.47
2022-12-14T23:07:12.799Z,96828.47
2022-12-14T23:09:58.376Z,96832.38
2022-12-14T23:12:45.060Z,96833.31
2022-12-14T23:15:30.355Z,96828.47
2022-12-14T23:18:20.287Z,96831.81
2022-12-14T23:21:05.824Z,96822.75
2022-12-14T23:23:51.136Z,96815.84
2022-12-14T23:26:36.531Z,96815.69
2022-12-14T23:29:23.140Z,96825.94
2022-12-14T23:32:09.095Z,96835.00
2022-12-14T23:34:55.038Z,96837.25
2022-12-14T23:37:40.374Z,96840.28
2022-12-14T23:40:27.396Z,96837.09
2022-12-14T23:43:12.715Z,96849.38
2022-12-14T23:46:00.957Z,96849.34
2022-12-14T23:48:46.830Z,96860.66
2022-12-14T23:51:32.209Z,96846.66
2022-12-14T23:54:17.601Z,96848.44
2022-12-14T23:57:03.093Z,96858.88
2022-12-14T23:59:49.345Z,96857.53
